sensor_id;sensor_type;location;lat;lon;timestamp;pressure;altitude;pressure_sealevel;temperature;humidity
31771;BME280;18343;50.152;8.182;2023-03-31T00:02:25;96670.06;;;12.28;100.00
31771;BME280;18343;50.152;8.182;2023-03-31T00:04:54;96665.50;;;12.29;100.00
31771;BME280;18343;50.152;8.182;2023-03-31T00:07:24;96652.97;;;12.16;100.00
31771;BME280;18343;50.152;8.182;2023-03-31T00:09:52;96656.09;;;12.13;100.00
31771;BME280;18343;50.152;8.182;2023-03-31T00:12:23;96642.41;;;12.14;100.00
31771;BME280;18343;50.152;8.182;2023-03-31T00:14:51;96650.09;;;12.11;100.00
31771;BME280;18343;50.152;8.182;2023-03-31T00:17:18;96642.75;;;12.00;100.00
31771;BME280;18343;50.152;8.182;2023-03-31T00:19:45;96633.03;;;11.99;100.00
31771;BME280;18343;50.152;8.182;2023-03-31T00:22:14;96627.84;;;11.97;100.00
31771;BME280;18343;50.152;8.182;2023-03-31T00:24:44;96618.56;;;11.93;100.00
31771;BME280;18343;50.152;8.182;2023-03-31T00:27:11;96612.94;;;11.95;100.00
31771;BME280;18343;50.152;8.182;2023-03-31T00:29:39;96619.53;;;11.99;100.00
31771;BME280;18343;50.152;8.182;2023-03-31T00:32:08;96612.28;;;11.99;100.00
31771;BME280;18343;50.152;8.182;2023-03-31T00:34:36;96609.00;;;11.97;100.00
31771;BME280;18343;50.152;8.182;2023-03-31T00:37:03;96608.31;;;12.02;100.00
31771;BME280;18343;50.152;8.182;2023-03-31T00:39:30;96604.34;;;12.04;100.00
31771;BME280;18343;50.152;8.182;2023-03-31T00:42:01;96608.09;;;12.03;100.00
31771;BME280;18343;50.152;8.182;2023-03-31T00:44:29;96596.84;;;12.06;100.00
31771;BME280;18343;50.152;8.182;2023-03-31T00:47:04;96590.63;;;12.06;100.00
31771;BME280;18343;50.152;8.182;2023-03-31T00:49:33;96586.78;;;12.02;100.00
31771;BME280;18343;50.152;8.182;2023-03-31T00:52:05;96586.16;;;12.00;100.00
31771;BME280;18343;50.152;8.182;2023-03-31T00:54:34;96578.19;;;11.86;100.00
31771;BME280;18343;50.152;8.182;2023-03-31T00:57:03;96577.75;;;11.90;100.00
31771;BME280;18343;50.152;8.182;2023-03-31T00:59:37;96573.97;;;11.97;100.00
31771;BME280;18343;50.152;8.182;2023-03-31T01:02:08;96569.19;;;11.99;100.00
31771;BME280;18343;50.152;8.182;2023-03-31T01:04:40;96557.56;;;11.99;100.00
31771;BME280;18343;50.152;8.182;2023-03-31T01:07:15;96553.84;;;12.00;100.00
31771;BME280;18343;50.152;8.182;2023-03-31T01:09:44;96552.56;;;12.02;100.00
31771;BME280;18343;50.152;8.182;2023-03-31T01:12:15;96542.75;;;12.08;100.00
31771;BME280;18343;50.152;8.182;2023-03-31T01:14:43;96536.31;;;12.09;100.00
31771;BME280;18343;50.152;8.182;2023-03-31T01:17:12;96537.13;;;12.09;100.00
31771;BME280;18343;50.152;8.182;2023-03-31T01:19:57;96533.38;;;12.10;100.00
31771;BME280;18343;50.152;8.182;2023-03-31T01:23:31;96525.53;;;12.09;100.00
31771;BME280;18343;50.152;8.182;2023-03-31T01:26:52;96523.06;;;12.07;100.00
31771;BME280;18343;50.152;8.182;2023-03-31T01:29:47;96511.44;;;12.07;100.00
31771;BME280;18343;50.152;8.182;2023-03-31T01:32:43;96500.81;;;12.12;100.00
31771;BME280;18343;50.152;8.182;2023-03-31T01:36:09;96495.81;;;12.15;100.00
31771;BME280;18343;50.152;8.182;2023-03-31T01:39:14;96492.28;;;12.15;100.00
31771;BME280;18343;50.152;8.182;2023-03-31T01:41:53;96485.25;;;12.14;100.00
31771;BME280;18343;50.152;8.182;2023-03-31T01:44:32;96472.00;;;12.12;100.00
31771;BME280;18343;50.152;8.182;2023-03-31T01:47:09;96461.00;;;12.14;100.00
31771;BME280;18343;50.152;8.182;2023-03-31T01:49:48;96459.19;;;12.08;100.00
31771;BME280;18343;50.152;8.182;2023-03-31T01:52:21;96451.50;;;12.11;100.00
31771;BME280;18343;50.152;8.182;2023-03-31T01:54:52;96438.25;;;12.10;100.00
31771;BME280;18343;50.152;8.182;2023-03-31T01:57:29;96432.69;;;12.05;100.00
31771;BME280;18343;50.152;8.182;2023-03-31T02:00:02;96428.47;;;11.97;100.00
31771;BME280;18343;50.152;8.182;2023-03-31T02:02:34;96416.78;;;11.85;100.00
31771;BME280;18343;50.152;8.182;2023-03-31T02:05:08;96416.41;;;11.81;100.00
31771;BME280;18343;50.152;8.182;2023-03-31T02:07:38;96410.19;;;11.81;100.00
31771;BME280;18343;50.152;8.182;2023-03-31T02:10:10;96406.81;;;11.67;100.00
31771;BME280;18343;50.152;8.182;2023-03-31T02:12:41;96404.56;;;11.64;100.00
31771;BME280;18343;50.152;8.182;2023-03-31T02:15:14;96399.94;;;11.53;100.00
31771;BME280;18343;50.152;8.182;2023-03-31T02:17:47;96403.31;;;11.67;100.00
31771;BME280;18343;50.152;8.182;2023-03-31T02:20:17;96397.16;;;11.60;100.00
31771;BME280;18343;50.152;8.182;2023-03-31T02:22:49;96398.81;;;11.61;100.00
31771;BME280;18343;50.152;8.182;2023-03-31T02:25:22;96398.59;;;11.62;100.00
31771;BME280;18343;50.152;8.182;2023-03-31T02:27:54;96383.91;;;11.58;100.00
31771;BME280;18343;50.152;8.182;2023-03-31T02:30:24;96387.59;;;11.64;100.00
31771;BME280;18343;50.152;8.182;2023-03-31T02:32:54;96384.06;;;11.63;100.00
31771;BME280;18343;50.152;8.182;2023-03-31T02:35:21;96382.63;;;11.24;100.00
31771;BME280;18343;50.152;8.182;2023-03-31T02:37:50;96379.53;;;11.45;100.00
31771;BME280;18343;50.152;8.182;2023-03-31T02:40:21;96383.69;;;11.60;100.00
31771;BME280;18343;50.152;8.182;2023-03-31T02:42:53;96384.75;;;11.59;100.00
31771;BME280;18343;50.152;8.182;2023-03-31T02:45:41;96372.09;;;11.59;100.00
31771;BME280;18343;50.152;8.182;2023-03-31T02:48:14;96360.38;;;11.53;100.00
31771;BME280;18343;50.152;8.182;2023-03-31T02:53:52;96353.28;;;11.41;100.00
31771;BME280;18343;50.152;8.182;2023-03-31T02:56:40;96338.91;;;11.29;100.00
31771;BME280;18343;50.152;8.182;2023-03-31T02:59:29;96322.09;;;11.33;100.00
31771;BME280;18343;50.152;8.182;2023-03-31T03:02:09;96301.31;;;11.40;100.00
31771;BME280;18343;50.152;8.182;2023-03-31T03:04:58;96284.84;;;11.48;100.00
31771;BME280;18343;50.152;8.182;2023-03-31T03:07:35;96266.25;;;11.47;100.00
31771;BME280;18343;50.152;8.182;2023-03-31T03:10:11;96245.38;;;11.42;100.00
31771;BME280;18343;50.152;8.182;2023-03-31T03:12:48;96252.19;;;11.45;100.00
31771;BME280;18343;50.152;8.182;2023-03-31T03:15:23;96269.47;;;11.37;100.00
31771;BME280;18343;50.152;8.182;2023-03-31T03:17:52;96270.88;;;11.40;100.00
31771;BME280;18343;50.152;8.182;2023-03-31T03:20:22;96272.28;;;11.42;100.00
31771;BME280;18343;50.152;8.182;2023-03-31T03:22:49;96275.81;;;11.43;100.00
31771;BME280;18343;50.152;8.182;2023-03-31T03:25:16;96270.72;;;11.35;100.00
31771;BME280;18343;50.152;8.182;2023-03-31T03:27:45;96261.16;;;11.39;100.00
31771;BME280;18343;50.152;8.182;2023-03-31T03:30:13;96247.25;;;11.24;100.00
31771;BME280;18343;50.152;8.182;2023-03-31T03:32:41;96235.78;;;11.16;100.00
31771;BME280;18343;50.152;8.182;2023-03-31T03:35:10;96248.44;;;11.28;100.00
31771;BME280;18343;50.152;8.182;2023-03-31T03:37:37;96232.53;;;11.26;100.00
31771;BME280;18343;50.152;8.182;2023-03-31T03:40:06;96241.13;;;11.35;100.00
31771;BME280;18343;50.152;8.182;2023-03-31T03:42:34;96227.66;;;11.35;100.00
31771;BME280;18343;50.152;8.182;2023-03-31T03:45:01;96212.19;;;11.30;100.00
31771;BME280;18343;50.152;8.182;2023-03-31T03:47:28;96215.25;;;11.34;100.00
31771;BME280;18343;50.152;8.182;2023-03-31T03:49:56;96218.75;;;11.34;100.00
31771;BME280;18343;50.152;8.182;2023-03-31T03:52:24;96212.56;;;11.34;100.00
31771;BME280;18343;50.152;8.182;2023-03-31T03:54:51;96195.31;;;11.23;100.00
31771;BME280;18343;50.152;8.182;2023-03-31T03:57:18;96172.66;;;11.31;100.00
31771;BME280;18343;50.152;8.182;2023-03-31T03:59:45;96182.44;;;11.25;100.00
31771;BME280;18343;50.152;8.182;2023-03-31T04:02:12;96185.59;;;11.22;100.00
31771;BME280;18343;50.152;8.182;2023-03-31T04:04:39;96182.56;;;11.18;100.00
31771;BME280;18343;50.152;8.182;2023-03-31T04:07:08;96178.81;;;11.19;100.00
31771;BME280;18343;50.152;8.182;2023-03-31T04:09:35;96173.75;;;11.11;100.00
31771;BME280;18343;50.152;8.182;2023-03-31T04:12:02;96184.53;;;10.93;100.00
31771;BME280;18343;50.152;8.182;2023-03-31T04:14:29;96173.00;;;11.04;100.00
31771;BME280;18343;50.152;8.182;2023-03-31T04:16:57;96164.25;;;11.09;100.00
31771;BME280;18343;50.152;8.182;2023-03-31T04:19:24;96171.66;;;11.13;100.00
31771;BME280;18343;50.152;8.182;2023-03-31T04:21:52;96164.03;;;11.10;100.00
31771;BME280;18343;50.152;8.182;2023-03-31T04:24:25;96155.13;;;11.10;100.00
31771;BME280;18343;50.152;8.182;2023-03-31T04:26:58;96160.88;;;11.13;100.00
31771;BME280;18343;50.152;8.182;2023-03-31T04:29:27;96153.84;;;11.12;100.00
31771;BME280;18343;50.152;8.182;2023-03-31T04:31:58;96141.91;;;11.08;100.00
31771;BME280;18343;50.152;8.182;2023-03-31T04:34:26;96134.06;;;11.07;100.00
31771;BME280;18343;50.152;8.182;2023-03-31T04:37:00;96123.44;;;11.12;100.00
31771;BME280;18343;50.152;8.182;2023-03-31T04:39:30;96114.69;;;11.16;100.00
31771;BME280;18343;50.152;8.182;2023-03-31T04:41:58;96114.25;;;11.19;100.00
31771;BME280;18343;50.152;8.182;2023-03-31T04:44:26;96101.34;;;11.22;100.00
31771;BME280;18343;50.152;8.182;2023-03-31T04:46:53;96096.44;;;11.18;100.00
31771;BME280;18343;50.152;8.182;2023-03-31T04:49:21;96102.75;;;11.24;100.00
31771;BME280;18343;50.152;8.182;2023-03-31T04:51:48;96108.63;;;11.21;100.00
31771;BME280;18343;50.152;8.182;2023-03-31T04:54:15;96115.41;;;11.24;100.00
31771;BME280;18343;50.152;8.182;2023-03-31T04:56:44;96118.44;;;11.27;100.00
31771;BME280;18343;50.152;8.182;2023-03-31T04:59:11;96120.09;;;11.28;100.00
31771;BME280;18343;50.152;8.182;2023-03-31T05:01:38;96111.78;;;11.30;100.00
31771;BME280;18343;50.152;8.182;2023-03-31T05:04:09;96103.94;;;11.16;100.00
31771;BME280;18343;50.152;8.182;2023-03-31T05:06:36;96105.28;;;11.07;100.00
31771;BME280;18343;50.152;8.182;2023-03-31T05:09:03;96107.75;;;10.79;100.00
31771;BME280;18343;50.152;8.182;2023-03-31T05:11:31;96096.44;;;10.89;100.00
31771;BME280;18343;50.152;8.182;2023-03-31T05:13:59;96092.44;;;10.79;100.00
31771;BME280;18343;50.152;8.182;2023-03-31T05:16:26;96098.47;;;10.75;100.00
31771;BME280;18343;50.152;8.182;2023-03-31T05:18:54;96086.81;;;10.81;100.00
31771;BME280;18343;50.152;8.182;2023-03-31T05:21:21;96088.78;;;10.74;100.00
31771;BME280;18343;50.152;8.182;2023-03-31T05:23:48;96081.28;;;10.76;100.00
31771;BME280;18343;50.152;8.182;2023-03-31T05:26:16;96091.31;;;10.69;100.00
31771;BME280;18343;50.152;8.182;2023-03-31T05:28:43;96071.38;;;10.76;100.00
31771;BME280;18343;50.152;8.182;2023-03-31T05:31:13;96087.91;;;10.62;100.00
31771;BME280;18343;50.152;8.182;2023-03-31T05:33:40;96084.16;;;10.63;100.00
31771;BME280;18343;50.152;8.182;2023-03-31T05:36:09;96077.75;;;10.64;100.00
31771;BME280;18343;50.152;8.182;2023-03-31T05:38:37;96076.72;;;10.65;100.00
31771;BME280;18343;50.152;8.182;2023-03-31T05:41:04;96064.47;;;10.50;100.00
31771;BME280;18343;50.152;8.182;2023-03-31T05:43:33;96052.38;;;10.60;100.00
31771;BME280;18343;50.152;8.182;2023-03-31T05:46:00;96044.91;;;10.62;100.00
31771;BME280;18343;50.152;8.182;2023-03-31T05:48:29;96021.97;;;10.59;100.00
31771;BME280;18343;50.152;8.182;2023-03-31T05:50:56;96011.69;;;10.68;100.00
31771;BME280;18343;50.152;8.182;2023-03-31T05:53:24;96008.56;;;10.71;100.00
31771;BME280;18343;50.152;8.182;2023-03-31T05:55:56;96004.69;;;10.67;100.00
31771;BME280;18343;50.152;8.182;2023-03-31T05:58:24;95993.94;;;10.67;100.00
31771;BME280;18343;50.152;8.182;2023-03-31T06:01:00;95984.38;;;10.71;100.00
31771;BME280;18343;50.152;8.182;2023-03-31T06:03:32;95971.81;;;10.53;100.00
31771;BME280;18343;50.152;8.182;2023-03-31T06:05:59;95969.03;;;10.60;100.00
31771;BME280;18343;50.152;8.182;2023-03-31T06:08:26;95963.78;;;10.65;100.00
31771;BME280;18343;50.152;8.182;2023-03-31T06:10:54;95964.63;;;10.65;100.00
31771;BME280;18343;50.152;8.182;2023-03-31T06:13:21;95949.31;;;10.66;100.00
31771;BME280;18343;50.152;8.182;2023-03-31T06:15:55;95944.03;;;10.71;100.00
31771;BME280;18343;50.152;8.182;2023-03-31T06:18:23;95944.03;;;10.71;100.00
31771;BME280;18343;50.152;8.182;2023-03-31T06:20:51;95925.44;;;10.69;100.00
31771;BME280;18343;50.152;8.182;2023-03-31T06:23:19;95923.25;;;10.66;100.00
31771;BME280;18343;50.152;8.182;2023-03-31T06:25:46;95925.13;;;10.77;100.00
31771;BME280;18343;50.152;8.182;2023-03-31T06:28:13;95911.56;;;10.84;100.00
31771;BME280;18343;50.152;8.182;2023-03-31T06:30:40;95916.13;;;10.83;100.00
31771;BME280;18343;50.152;8.182;2023-03-31T06:33:08;95918.00;;;10.83;100.00
31771;BME280;18343;50.152;8.182;2023-03-31T06:35:37;95908.44;;;10.87;100.00
31771;BME280;18343;50.152;8.182;2023-03-31T06:38:06;95894.03;;;10.81;100.00
31771;BME280;18343;50.152;8.182;2023-03-31T06:40:33;95901.88;;;10.83;100.00
31771;BME280;18343;50.152;8.182;2023-03-31T06:43:01;95894.63;;;10.83;100.00
31771;BME280;18343;50.152;8.182;2023-03-31T06:45:28;95897.31;;;10.83;100.00
31771;BME280;18343;50.152;8.182;2023-03-31T06:47:55;95898.13;;;10.84;100.00
31771;BME280;18343;50.152;8.182;2023-03-31T06:50:22;95903.06;;;10.87;100.00
31771;BME280;18343;50.152;8.182;2023-03-31T06:52:49;95913.13;;;10.92;100.00
31771;BME280;18343;50.152;8.182;2023-03-31T06:55:21;95928.53;;;10.84;100.00
31771;BME280;18343;50.152;8.182;2023-03-31T06:57:48;95946.94;;;10.58;100.00
31771;BME280;18343;50.152;8.182;2023-03-31T07:00:16;95959.31;;;10.29;100.00
31771;BME280;18343;50.152;8.182;2023-03-31T07:02:44;95943.88;;;10.54;100.00
31771;BME280;18343;50.152;8.182;2023-03-31T07:05:11;95945.53;;;10.67;100.00
31771;BME280;18343;50.152;8.182;2023-03-31T07:07:38;95934.69;;;10.73;100.00
31771;BME280;18343;50.152;8.182;2023-03-31T07:10:06;95933.19;;;10.77;100.00
31771;BME280;18343;50.152;8.182;2023-03-31T07:12:35;95925.03;;;10.84;100.00
31771;BME280;18343;50.152;8.182;2023-03-31T07:15:03;95913.56;;;10.89;100.00
31771;BME280;18343;50.152;8.182;2023-03-31T07:17:30;95903.41;;;10.91;100.00
31771;BME280;18343;50.152;8.182;2023-03-31T07:19:57;95888.19;;;10.96;100.00
31771;BME280;18343;50.152;8.182;2023-03-31T07:22:25;95878.03;;;10.98;100.00
31771;BME280;18343;50.152;8.182;2023-03-31T07:24:52;95870.53;;;11.00;100.00
31771;BME280;18343;50.152;8.182;2023-03-31T07:27:19;95863.53;;;10.99;100.00
31771;BME280;18343;50.152;8.182;2023-03-31T07:29:47;95866.56;;;11.03;100.00
31771;BME280;18343;50.152;8.182;2023-03-31T07:32:15;95871.84;;;11.09;100.00
31771;BME280;18343;50.152;8.182;2023-03-31T07:34:43;95858.28;;;11.16;100.00
31771;BME280;18343;50.152;8.182;2023-03-31T07:37:10;95847.38;;;11.23;100.00
31771;BME280;18343;50.152;8.182;2023-03-31T07:39:37;95838.94;;;11.31;100.00
31771;BME280;18343;50.152;8.182;2023-03-31T07:42:04;95830.16;;;11.35;100.00
31771;BME280;18343;50.152;8.182;2023-03-31T07:44:32;95835.06;;;11.38;100.00
31771;BME280;18343;50.152;8.182;2023-03-31T07:47:01;95845.72;;;11.33;100.00
31771;BME280;18343;50.152;8.182;2023-03-31T07:49:29;95838.81;;;11.37;100.00
31771;BME280;18343;50.152;8.182;2023-03-31T07:51:56;95838.34;;;11.40;100.00
31771;BME280;18343;50.152;8.182;2023-03-31T07:54:23;95845.72;;;11.45;100.00
31771;BME280;18343;50.152;8.182;2023-03-31T07:56:51;95850.13;;;11.51;100.00
31771;BME280;18343;50.152;8.182;2023-03-31T07:59:18;95853.41;;;11.53;100.00
31771;BME280;18343;50.152;8.182;2023-03-31T08:01:45;95852.81;;;11.63;100.00
31771;BME280;18343;50.152;8.182;2023-03-31T08:04:14;95854.53;;;11.80;100.00
31771;BME280;18343;50.152;8.182;2023-03-31T08:06:41;95850.31;;;11.84;100.00
31771;BME280;18343;50.152;8.182;2023-03-31T08:09:08;95857.81;;;11.82;100.00
31771;BME280;18343;50.152;8.182;2023-03-31T08:11:35;95859.81;;;11.75;100.00
31771;BME280;18343;50.152;8.182;2023-03-31T08:14:02;95862.16;;;11.83;100.00
31771;BME280;18343;50.152;8.182;2023-03-31T08:16:29;95862.94;;;11.96;100.00
31771;BME280;18343;50.152;8.182;2023-03-31T08:18:57;95858.59;;;11.95;100.00
31771;BME280;18343;50.152;8.182;2023-03-31T08:21:27;95852.03;;;12.02;100.00
31771;BME280;18343;50.152;8.182;2023-03-31T08:23:54;95856.59;;;12.02;100.00
31771;BME280;18343;50.152;8.182;2023-03-31T08:26:23;95847.56;;;11.56;100.00
31771;BME280;18343;50.152;8.182;2023-03-31T08:28:51;95840.38;;;11.73;100.00
31771;BME280;18343;50.152;8.182;2023-03-31T08:31:20;95838.72;;;11.84;100.00
31771;BME280;18343;50.152;8.182;2023-03-31T08:33:48;95839.31;;;11.74;100.00
31771;BME280;18343;50.152;8.182;2023-03-31T08:36:15;95837.91;;;11.83;100.00
31771;BME280;18343;50.152;8.182;2023-03-31T08:38:44;95838.09;;;11.94;100.00
31771;BME280;18343;50.152;8.182;2023-03-31T08:41:28;95845.16;;;11.83;100.00
31771;BME280;18343;50.152;8.182;2023-03-31T08:44:01;95841.41;;;11.84;100.00
31771;BME280;18343;50.152;8.182;2023-03-31T08:50:15;95839.06;;;11.88;100.00
31771;BME280;18343;50.152;8.182;2023-03-31T08:52:47;95836.03;;;11.84;100.00
31771;BME280;18343;50.152;8.182;2023-03-31T08:55:24;95836.94;;;11.90;100.00
31771;BME280;18343;50.152;8.182;2023-03-31T08:58:00;95834.25;;;11.90;100.00
31771;BME280;18343;50.152;8.182;2023-03-31T09:00:38;95824.78;;;11.87;100.00
31771;BME280;18343;50.152;8.182;2023-03-31T09:03:14;95818.78;;;11.97;100.00
31771;BME280;18343;50.152;8.182;2023-03-31T09:05:55;95817.03;;;12.19;100.00
31771;BME280;18343;50.152;8.182;2023-03-31T09:08:33;95817.47;;;12.44;100.00
31771;BME280;18343;50.152;8.182;2023-03-31T09:11:25;95809.38;;;12.78;100.00
31771;BME280;18343;50.152;8.182;2023-03-31T09:14:28;95797.66;;;13.23;100.00
31771;BME280;18343;50.152;8.182;2023-03-31T09:17:20;95795.09;;;13.33;100.00
31771;BME280;18343;50.152;8.182;2023-03-31T09:20:14;95793.97;;;13.50;100.00
31771;BME280;18343;50.152;8.182;2023-03-31T09:23:12;95795.22;;;13.43;100.00
31771;BME280;18343;50.152;8.182;2023-03-31T09:26:01;95796.91;;;13.27;100.00
31771;BME280;18343;50.152;8.182;2023-03-31T09:28:49;95792.63;;;13.14;100.00
31771;BME280;18343;50.152;8.182;2023-03-31T09:31:34;95799.06;;;13.08;100.00
31771;BME280;18343;50.152;8.182;2023-03-31T09:34:24;95791.94;;;13.02;100.00
31771;BME280;18343;50.152;8.182;2023-03-31T09:37:11;95795.28;;;12.93;100.00
31771;BME280;18343;50.152;8.182;2023-03-31T09:39:57;95770.88;;;12.82;100.00
31771;BME280;18343;50.152;8.182;2023-03-31T09:42:44;95776.41;;;12.93;100.00
31771;BME280;18343;50.152;8.182;2023-03-31T09:45:31;95775.91;;;13.12;100.00
31771;BME280;18343;50.152;8.182;2023-03-31T09:48:20;95767.63;;;12.80;100.00
31771;BME280;18343;50.152;8.182;2023-03-31T09:51:13;95760.19;;;12.37;100.00
31771;BME280;18343;50.152;8.182;2023-03-31T09:54:06;95765.81;;;12.36;100.00
31771;BME280;18343;50.152;8.182;2023-03-31T09:56:52;95766.41;;;12.21;100.00
31771;BME280;18343;50.152;8.182;2023-03-31T09:59:36;95756.25;;;12.62;100.00
31771;BME280;18343;50.152;8.182;2023-03-31T10:02:47;95776.28;;;12.66;100.00
31771;BME280;18343;50.152;8.182;2023-03-31T10:05:35;95791.22;;;12.23;100.00
31771;BME280;18343;50.152;8.182;2023-03-31T10:08:26;95796.09;;;11.81;100.00
31771;BME280;18343;50.152;8.182;2023-03-31T10:11:12;95780.91;;;11.75;100.00
31771;BME280;18343;50.152;8.182;2023-03-31T10:14:01;95776.41;;;11.52;100.00
31771;BME280;18343;50.152;8.182;2023-03-31T10:16:49;95791.44;;;11.25;100.00
31771;BME280;18343;50.152;8.182;2023-03-31T10:19:39;95780.66;;;11.36;100.00
31771;BME280;18343;50.152;8.182;2023-03-31T10:22:31;95765.97;;;11.56;100.00
31771;BME280;18343;50.152;8.182;2023-03-31T10:25:20;95774.16;;;11.61;100.00
31771;BME280;18343;50.152;8.182;2023-03-31T10:28:11;95768.63;;;11.67;100.00
31771;BME280;18343;50.152;8.182;2023-03-31T10:30:59;95760.50;;;11.79;100.00
31771;BME280;18343;50.152;8.182;2023-03-31T10:33:47;95756.72;;;11.92;100.00
31771;BME280;18343;50.152;8.182;2023-03-31T10:36:34;95749.50;;;11.80;100.00
31771;BME280;18343;50.152;8.182;2023-03-31T10:39:30;95756.69;;;12.03;100.00
31771;BME280;18343;50.152;8.182;2023-03-31T10:42:21;95738.28;;;11.72;100.00
31771;BME280;18343;50.152;8.182;2023-03-31T10:45:23;95742.53;;;12.13;100.00
31771;BME280;18343;50.152;8.182;2023-03-31T10:48:18;95734.13;;;12.43;100.00
31771;BME280;18343;50.152;8.182;2023-03-31T10:51:09;95734.38;;;12.58;100.00
31771;BME280;18343;50.152;8.182;2023-03-31T10:54:00;95719.94;;;12.86;100.00
31771;BME280;18343;50.152;8.182;2023-03-31T10:56:46;95732.47;;;12.59;100.00
31771;BME280;18343;50.152;8.182;2023-03-31T10:59:42;95736.31;;;12.63;100.00
31771;BME280;18343;50.152;8.182;2023-03-31T11:03:09;95727.16;;;12.80;100.00
31771;BME280;18343;50.152;8.182;2023-03-31T11:06:08;95730.28;;;13.11;100.00
31771;BME280;18343;50.152;8.182;2023-03-31T11:09:10;95722.69;;;13.30;100.00
31771;BME280;18343;50.152;8.182;2023-03-31T11:12:04;95725.63;;;13.06;100.00
31771;BME280;18343;50.152;8.182;2023-03-31T11:14:58;95717.44;;;13.40;100.00
31771;BME280;18343;50.152;8.182;2023-03-31T11:18:04;95706.63;;;13.40;100.00
31771;BME280;18343;50.152;8.182;2023-03-31T11:21:00;95709.84;;;12.98;100.00
31771;BME280;18343;50.152;8.182;2023-03-31T11:24:00;95713.22;;;13.27;100.00
31771;BME280;18343;50.152;8.182;2023-03-31T11:26:54;95704.22;;;13.21;100.00
31771;BME280;18343;50.152;8.182;2023-03-31T11:29:42;95720.47;;;13.05;100.00
31771;BME280;18343;50.152;8.182;2023-03-31T11:32:44;95703.22;;;13.28;100.00
31771;BME280;18343;50.152;8.182;2023-03-31T11:35:53;95688.25;;;13.42;100.00
31771;BME280;18343;50.152;8.182;2023-03-31T11:39:06;95720.97;;;13.45;100.00
31771;BME280;18343;50.152;8.182;2023-03-31T11:41:58;95715.78;;;13.39;100.00
31771;BME280;18343;50.152;8.182;2023-03-31T11:44:49;95707.16;;;13.42;100.00
31771;BME280;18343;50.152;8.182;2023-03-31T11:47:38;95691.72;;;13.59;100.00
31771;BME280;18343;50.152;8.182;2023-03-31T11:50:27;95700.25;;;13.51;100.00
31771;BME280;18343;50.152;8.182;2023-03-31T11:53:16;95695.78;;;13.88;100.00
31771;BME280;18343;50.152;8.182;2023-03-31T11:56:04;95693.53;;;13.53;100.00
31771;BME280;18343;50.152;8.182;2023-03-31T11:58:53;95679.16;;;13.48;100.00
31771;BME280;18343;50.152;8.182;2023-03-31T12:01:43;95685.53;;;13.91;100.00
31771;BME280;18343;50.152;8.182;2023-03-31T12:04:36;95669.34;;;13.91;100.00
31771;BME280;18343;50.152;8.182;2023-03-31T12:07:27;95675.84;;;13.68;100.00
31771;BME280;18343;50.152;8.182;2023-03-31T12:10:19;95665.66;;;13.48;100.00
31771;BME280;18343;50.152;8.182;2023-03-31T12:13:32;95666.97;;;13.72;100.00
31771;BME280;18343;50.152;8.182;2023-03-31T12:16:21;95658.78;;;13.62;100.00
31771;BME280;18343;50.152;8.182;2023-03-31T12:19:13;95653.50;;;14.04;100.00
31771;BME280;18343;50.152;8.182;2023-03-31T12:22:07;95643.28;;;14.11;100.00
31771;BME280;18343;50.152;8.182;2023-03-31T12:24:54;95650.41;;;13.91;100.00
31771;BME280;18343;50.152;8.182;2023-03-31T12:27:40;95640.63;;;14.16;100.00
31771;BME280;18343;50.152;8.182;2023-03-31T12:30:30;95641.50;;;14.27;99.15
31771;BME280;18343;50.152;8.182;2023-03-31T12:33:21;95635.84;;;14.71;100.00
31771;BME280;18343;50.152;8.182;2023-03-31T12:36:23;95631.75;;;15.26;99.77
31771;BME280;18343;50.152;8.182;2023-03-31T12:39:30;95638.44;;;15.08;97.52
31771;BME280;18343;50.152;8.182;2023-03-31T12:42:44;95647.13;;;15.10;96.59
31771;BME280;18343;50.152;8.182;2023-03-31T12:45:36;95661.19;;;15.02;95.67
31771;BME280;18343;50.152;8.182;2023-03-31T12:48:51;95661.94;;;14.92;97.01
31771;BME280;18343;50.152;8.182;2023-03-31T12:52:01;95654.41;;;14.99;96.94
31771;BME280;18343;50.152;8.182;2023-03-31T12:55:24;95647.09;;;14.47;95.61
31771;BME280;18343;50.152;8.182;2023-03-31T12:58:50;95645.09;;;14.38;96.14
31771;BME280;18343;50.152;8.182;2023-03-31T13:02:25;95641.56;;;14.37;96.86
31771;BME280;18343;50.152;8.182;2023-03-31T13:05:46;95635.56;;;14.67;96.80
31771;BME280;18343;50.152;8.182;2023-03-31T13:08:53;95642.06;;;14.66;95.82
31771;BME280;18343;50.152;8.182;2023-03-31T13:11:39;95635.97;;;14.96;96.88
31771;BME280;18343;50.152;8.182;2023-03-31T13:14:36;95629.66;;;14.80;96.78
31771;BME280;18343;50.152;8.182;2023-03-31T13:17:29;95622.13;;;14.87;97.39
31771;BME280;18343;50.152;8.182;2023-03-31T13:20:30;95623.28;;;15.07;95.32
31771;BME280;18343;50.152;8.182;2023-03-31T13:23:19;95619.13;;;14.84;96.58
31771;BME280;18343;50.152;8.182;2023-03-31T13:26:04;95624.09;;;15.02;95.96
31771;BME280;18343;50.152;8.182;2023-03-31T13:29:19;95619.25;;;15.14;94.87
31771;BME280;18343;50.152;8.182;2023-03-31T13:32:16;95625.34;;;14.84;96.71
31771;BME280;18343;50.152;8.182;2023-03-31T13:35:05;95625.09;;;14.39;98.23
31771;BME280;18343;50.152;8.182;2023-03-31T13:38:05;95618.75;;;14.23;100.00
31771;BME280;18343;50.152;8.182;2023-03-31T13:48:03;95619.91;;;14.74;100.00
31771;BME280;18343;50.152;8.182;2023-03-31T13:51:24;95611.06;;;14.94;100.00
31771;BME280;18343;50.152;8.182;2023-03-31T13:54:49;95605.16;;;15.12;100.00
31771;BME280;18343;50.152;8.182;2023-03-31T13:58:09;95605.53;;;15.46;99.18
31771;BME280;18343;50.152;8.182;2023-03-31T14:01:35;95605.78;;;15.40;98.27
31771;BME280;18343;50.152;8.182;2023-03-31T14:04:52;95593.09;;;15.55;95.55
31771;BME280;18343;50.152;8.182;2023-03-31T14:08:07;95593.91;;;15.51;95.05